createdAt,value
2019-03-27T00:01:18.599Z,4.00
2019-03-27T00:03:46.651Z,4.00
2019-03-27T00:06:14.645Z,4.00
2019-03-27T00:08:42.691Z,3.90
2019-03-27T00:11:10.727Z,3.90
2019-03-27T00:13:38.754Z,3.90
2019-03-27T00:16:06.972Z,3.90
2019-03-27T00:18:35.130Z,3.90
2019-03-27T00:21:03.123Z,3.90
2019-03-27T00:23:31.141Z,3.80
2019-03-27T00:25:59.153Z,3.80
2019-03-27T00:28:27.208Z,3.80
2019-03-27T00:30:55.207Z,3.90
2019-03-27T00:33:23.248Z,3.80
2019-03-27T00:35:51.262Z,3.80
2019-03-27T00:38:19.472Z,3.80
2019-03-27T00:40:47.474Z,3.80
2019-03-27T00:43:15.464Z,3.80
2019-03-27T00:45:43.500Z,3.80
2019-03-27T00:48:11.506Z,3.80
2019-03-27T00:50:39.573Z,3.80
2019-03-27T00:53:07.617Z,3.80
2019-03-27T00:55:35.646Z,3.80
2019-03-27T00:58:03.670Z,3.80
2019-03-27T01:01:03.789Z,3.80
2019-03-27T01:03:31.824Z,3.80
2019-03-27T01:05:59.812Z,3.80
2019-03-27T01:08:27.840Z,3.80
2019-03-27T01:10:55.834Z,3.80
2019-03-27T01:13:23.854Z,3.70
2019-03-27T01:15:51.870Z,3.70
2019-03-27T01:18:19.885Z,3.70
2019-03-27T01:20:47.871Z,3.70
2019-03-27T01:23:15.873Z,3.70
2019-03-27T01:25:43.849Z,3.70
2019-03-27T01:28:11.846Z,3.70
2019-03-27T01:30:39.905Z,3.70
2019-03-27T01:33:07.880Z,3.70
2019-03-27T01:35:35.895Z,3.70
2019-03-27T01:38:03.913Z,3.70
2019-03-27T01:40:31.910Z,3.60
2019-03-27T01:43:00.002Z,3.70
2019-03-27T01:45:28.228Z,3.60
2019-03-27T01:47:56.209Z,3.60
2019-03-27T01:50:24.206Z,3.60
2019-03-27T01:52:52.235Z,3.60
2019-03-27T01:55:20.220Z,3.60
2019-03-27T01:57:48.241Z,3.60
2019-03-27T02:00:16.132Z,3.60
2019-03-27T02:02:44.127Z,3.60
2019-03-27T02:05:12.142Z,3.50
2019-03-27T02:07:40.158Z,3.60
2019-03-27T02:10:08.493Z,3.60
2019-03-27T02:12:36.396Z,3.50
2019-03-27T02:15:04.903Z,3.50
2019-03-27T02:17:32.949Z,3.50
2019-03-27T02:20:00.955Z,3.50
2019-03-27T02:22:28.962Z,3.50
2019-03-27T02:24:57.047Z,3.50
2019-03-27T02:27:24.998Z,3.50
2019-03-27T02:29:52.975Z,3.50
2019-03-27T02:32:21.150Z,3.50
2019-03-27T02:34:49.307Z,3.50
2019-03-27T02:37:17.290Z,3.40
2019-03-27T02:39:45.288Z,3.40
2019-03-27T02:42:13.319Z,3.50
2019-03-27T02:44:41.270Z,3.40
2019-03-27T02:47:09.318Z,3.50
2019-03-27T02:49:37.327Z,3.40
2019-03-27T02:52:05.296Z,3.40
2019-03-27T02:54:33.387Z,3.50
2019-03-27T02:57:01.305Z,3.50
2019-03-27T02:59:29.283Z,3.50
2019-03-27T03:01:57.354Z,3.50
2019-03-27T03:04:25.312Z,3.50
2019-03-27T03:06:53.341Z,3.50
2019-03-27T03:09:21.346Z,3.60
2019-03-27T03:11:49.346Z,3.50
2019-03-27T03:14:17.498Z,3.50
2019-03-27T03:16:45.506Z,3.60
2019-03-27T03:19:13.514Z,3.60
2019-03-27T03:21:41.704Z,3.60
2019-03-27T03:24:09.722Z,3.60
2019-03-27T03:26:37.732Z,3.50
2019-03-27T03:29:05.777Z,3.50
2019-03-27T03:31:33.760Z,3.50
2019-03-27T03:34:01.750Z,3.50
2019-03-27T03:36:29.777Z,3.50
2019-03-27T03:38:57.761Z,3.50
2019-03-27T03:41:25.781Z,3.40
2019-03-27T03:43:53.766Z,3.50
2019-03-27T03:46:21.742Z,3.40
2019-03-27T03:48:49.754Z,3.50
2019-03-27T03:51:20.021Z,3.50
2019-03-27T03:53:48.109Z,3.40
2019-03-27T03:56:17.046Z,3.40
2019-03-27T03:58:47.049Z,3.40
2019-03-27T04:01:16.704Z,3.40
2019-03-27T04:03:46.012Z,3.40
2019-03-27T04:06:14.101Z,3.40
2019-03-27T04:08:42.111Z,3.30
2019-03-27T04:11:10.094Z,3.30
2019-03-27T04:13:38.088Z,3.40
2019-03-27T04:16:06.109Z,3.30
2019-03-27T04:18:34.126Z,3.40
2019-03-27T04:21:02.812Z,3.40
2019-03-27T04:23:30.833Z,3.40
2019-03-27T04:26:09.868Z,3.40
2019-03-27T04:28:28.613Z,3.40
2019-03-27T04:30:56.637Z,3.40
2019-03-27T04:33:24.646Z,3.40
2019-03-27T04:35:52.645Z,3.40
2019-03-27T04:38:20.652Z,3.40
2019-03-27T04:40:48.664Z,3.40
2019-03-27T04:43:16.721Z,3.40
2019-03-27T04:45:44.753Z,3.40
2019-03-27T04:48:12.732Z,3.40
2019-03-27T04:50:40.788Z,3.40
2019-03-27T04:53:08.811Z,3.30
2019-03-27T04:55:36.807Z,3.30
2019-03-27T04:58:04.825Z,3.40
2019-03-27T05:00:32.818Z,3.40
2019-03-27T05:03:01.059Z,3.40
2019-03-27T05:05:28.995Z,3.40
2019-03-27T05:07:57.020Z,3.40
2019-03-27T05:10:25.052Z,3.40
2019-03-27T05:12:53.060Z,3.40
2019-03-27T05:15:21.044Z,3.40
2019-03-27T05:17:49.081Z,3.40
2019-03-27T05:20:17.093Z,3.40
2019-03-27T05:22:45.162Z,3.40
2019-03-27T05:25:13.180Z,3.40
2019-03-27T05:27:41.215Z,3.50
2019-03-27T05:30:09.453Z,3.40
2019-03-27T05:32:37.419Z,3.50
2019-03-27T05:35:06.579Z,3.50
2019-03-27T05:37:34.591Z,3.50
2019-03-27T05:40:02.590Z,3.50
2019-03-27T05:42:30.574Z,3.60
2019-03-27T05:44:58.642Z,3.60
2019-03-27T05:47:26.639Z,3.60
2019-03-27T05:49:54.660Z,3.60
2019-03-27T05:52:22.681Z,3.60
2019-03-27T05:54:50.702Z,3.70
2019-03-27T05:57:18.752Z,3.70
2019-03-27T05:59:46.764Z,3.70
2019-03-27T06:02:14.767Z,3.70
2019-03-27T06:04:43.010Z,3.80
2019-03-27T06:07:11.017Z,3.80
2019-03-27T06:09:39.002Z,3.80
2019-03-27T06:12:07.109Z,3.90
2019-03-27T06:14:35.171Z,3.90
2019-03-27T06:17:03.193Z,4.00
2019-03-27T06:19:31.273Z,4.10
2019-03-27T06:21:59.290Z,4.10
2019-03-27T06:24:27.336Z,4.10
2019-03-27T06:26:55.366Z,4.10
2019-03-27T06:29:23.350Z,4.10
2019-03-27T06:31:51.385Z,4.00
2019-03-27T06:34:19.365Z,4.10
2019-03-27T06:36:47.393Z,4.10
2019-03-27T06:39:15.404Z,4.10
2019-03-27T06:41:43.443Z,4.20
2019-03-27T06:44:11.447Z,4.20
2019-03-27T06:46:39.452Z,4.30
2019-03-27T06:49:07.481Z,4.30
2019-03-27T06:51:40.220Z,4.40
2019-03-27T06:54:05.369Z,4.50
2019-03-27T06:56:33.401Z,4.60
2019-03-27T06:59:01.385Z,4.60
2019-03-27T07:01:29.424Z,4.70
2019-03-27T07:04:10.025Z,4.70
2019-03-27T07:06:27.276Z,4.80
2019-03-27T07:08:55.309Z,4.80
2019-03-27T07:11:23.297Z,4.90
2019-03-27T07:13:51.368Z,5.00
2019-03-27T07:16:19.391Z,5.00
2019-03-27T07:18:47.357Z,5.00
2019-03-27T07:21:15.401Z,5.00
2019-03-27T07:23:43.433Z,5.10
2019-03-27T07:26:11.424Z,5.20
2019-03-27T07:28:39.438Z,5.20
2019-03-27T07:31:07.432Z,5.20
2019-03-27T07:33:35.452Z,5.30
2019-03-27T07:36:03.476Z,5.30
2019-03-27T07:38:31.520Z,5.30
2019-03-27T07:40:59.527Z,5.30
2019-03-27T07:43:27.538Z,5.40
2019-03-27T07:45:55.564Z,5.40
2019-03-27T07:48:23.602Z,5.50
2019-03-27T07:50:51.705Z,5.60
2019-03-27T07:53:22.328Z,5.60
2019-03-27T07:55:49.505Z,5.60
2019-03-27T07:58:17.540Z,5.60
2019-03-27T08:00:45.562Z,5.60
2019-03-27T08:03:13.559Z,5.70
2019-03-27T08:05:41.666Z,5.70
2019-03-27T08:08:09.684Z,5.80
2019-03-27T08:10:37.707Z,5.90
2019-03-27T08:13:05.784Z,6.10
2019-03-27T08:15:33.785Z,6.00
2019-03-27T08:18:01.815Z,6.10
2019-03-27T08:20:29.836Z,6.10
2019-03-27T08:22:57.842Z,6.20
2019-03-27T08:25:25.869Z,6.10
2019-03-27T08:27:54.598Z,6.20
2019-03-27T08:30:22.833Z,6.20
2019-03-27T08:32:50.866Z,6.30
2019-03-27T08:35:18.847Z,6.50
2019-03-27T08:37:46.886Z,6.50
2019-03-27T08:40:15.039Z,6.60
2019-03-27T08:42:43.030Z,6.70
2019-03-27T08:45:11.709Z,6.70
2019-03-27T08:47:39.771Z,6.80
2019-03-27T08:50:09.044Z,7.00
2019-03-27T08:52:37.128Z,7.10
2019-03-27T08:55:05.871Z,7.30
2019-03-27T08:57:33.889Z,7.50
2019-03-27T09:00:02.868Z,7.70
2019-03-27T09:02:31.012Z,7.90
2019-03-27T09:04:59.015Z,8.10
2019-03-27T09:07:27.057Z,8.10
2019-03-27T09:09:55.065Z,8.40
2019-03-27T09:12:23.093Z,8.40
2019-03-27T09:14:51.094Z,8.50
2019-03-27T09:17:19.174Z,8.60
2019-03-27T09:19:47.174Z,8.70
2019-03-27T09:22:15.191Z,8.80
2019-03-27T09:24:43.222Z,8.80
2019-03-27T09:27:11.208Z,8.80
2019-03-27T09:29:39.247Z,8.60
2019-03-27T09:32:07.314Z,8.50
2019-03-27T09:34:35.305Z,8.50
2019-03-27T09:37:03.473Z,8.50
2019-03-27T09:39:31.467Z,8.60
2019-03-27T09:41:59.496Z,8.90
2019-03-27T09:44:27.539Z,9.10
2019-03-27T09:46:55.528Z,9.20
2019-03-27T09:49:23.545Z,9.30
2019-03-27T09:51:51.581Z,9.40
2019-03-27T09:54:19.602Z,9.30
2019-03-27T09:56:47.670Z,9.30
2019-03-27T09:59:15.661Z,9.50
2019-03-27T10:01:43.691Z,9.80
2019-03-27T10:04:11.698Z,10.10
2019-03-27T10:06:39.710Z,10.60
2019-03-27T10:09:07.793Z,11.60
2019-03-27T10:11:35.797Z,12.30
2019-03-27T10:14:03.867Z,12.80
2019-03-27T10:16:31.871Z,13.30
2019-03-27T10:18:59.858Z,13.30
2019-03-27T10:21:27.943Z,13.30
2019-03-27T10:23:55.933Z,12.80
2019-03-27T10:26:23.936Z,12.60
2019-03-27T10:28:52.027Z,12.60
2019-03-27T10:31:20.265Z,12.60
2019-03-27T10:33:48.320Z,12.30
2019-03-27T10:36:16.303Z,11.80
2019-03-27T10:38:44.385Z,11.20
2019-03-27T10:41:12.394Z,10.80
2019-03-27T10:43:40.417Z,10.40
2019-03-27T10:46:08.471Z,10.30
2019-03-27T10:48:36.492Z,10.30
2019-03-27T10:51:04.539Z,10.30
2019-03-27T10:53:32.586Z,10.50
2019-03-27T10:56:00.570Z,10.60
2019-03-27T10:58:28.588Z,10.70
2019-03-27T11:00:56.617Z,10.90
2019-03-27T11:03:24.665Z,12.20
2019-03-27T11:05:52.690Z,11.40
2019-03-27T11:08:20.735Z,11.40
2019-03-27T11:10:48.734Z,11.30
2019-03-27T11:13:16.762Z,11.40
2019-03-27T11:15:44.779Z,11.90
2019-03-27T11:18:12.789Z,12.20
2019-03-27T11:20:40.847Z,12.80
2019-03-27T11:23:08.877Z,13.60
2019-03-27T11:25:36.914Z,14.00
2019-03-27T11:28:04.958Z,14.00
2019-03-27T11:30:40.403Z,13.80
2019-03-27T11:33:08.504Z,13.00
2019-03-27T11:35:36.510Z,12.30
2019-03-27T11:38:04.595Z,11.70
2019-03-27T11:40:32.589Z,11.40
2019-03-27T11:43:00.628Z,11.30
2019-03-27T11:45:28.710Z,11.20
2019-03-27T11:47:56.702Z,11.00
2019-03-27T11:50:24.840Z,11.00
2019-03-27T11:52:52.840Z,11.00
2019-03-27T11:55:20.862Z,11.20
2019-03-27T11:57:48.912Z,11.40
2019-03-27T12:00:17.012Z,11.80
2019-03-27T12:02:44.928Z,12.60
2019-03-27T12:05:13.081Z,13.60
2019-03-27T12:07:41.080Z,14.80
2019-03-27T12:10:10.009Z,15.40
2019-03-27T12:12:38.088Z,16.00
2019-03-27T12:15:06.795Z,15.50
2019-03-27T12:17:34.793Z,15.00
2019-03-27T12:20:03.098Z,13.90
2019-03-27T12:22:31.142Z,13.70
2019-03-27T12:24:59.152Z,13.60
2019-03-27T12:27:27.156Z,13.70
2019-03-27T12:29:55.205Z,14.20
2019-03-27T12:32:25.007Z,14.20
2019-03-27T12:34:53.002Z,13.90
2019-03-27T12:37:21.025Z,13.60
2019-03-27T12:39:49.038Z,13.40
2019-03-27T12:42:17.077Z,13.10
2019-03-27T12:44:45.089Z,13.10
2019-03-27T12:47:13.091Z,13.30
2019-03-27T12:49:41.118Z,13.10
2019-03-27T12:52:09.249Z,12.80
2019-03-27T12:54:37.281Z,12.60
2019-03-27T12:57:05.312Z,12.20
2019-03-27T12:59:33.369Z,12.00
2019-03-27T13:02:01.371Z,11.80
2019-03-27T13:04:29.367Z,11.60
2019-03-27T13:06:57.394Z,11.40
2019-03-27T13:09:25.394Z,11.30
2019-03-27T13:11:53.481Z,11.30
2019-03-27T13:14:21.481Z,11.10
2019-03-27T13:16:52.192Z,11.00
2019-03-27T13:19:19.332Z,10.90
2019-03-27T13:21:47.330Z,11.10
2019-03-27T13:24:15.373Z,12.10
2019-03-27T13:26:43.511Z,13.00
2019-03-27T13:29:11.428Z,13.70
2019-03-27T13:31:39.464Z,13.90
2019-03-27T13:34:07.468Z,13.80
2019-03-27T13:36:36.554Z,13.60
2019-03-27T13:39:06.857Z,13.30
2019-03-27T13:41:35.183Z,12.80
2019-03-27T13:44:03.202Z,12.40
2019-03-27T13:46:31.204Z,12.20
2019-03-27T13:48:59.263Z,11.70
2019-03-27T13:51:40.002Z,11.50
2019-03-27T13:53:57.146Z,11.20
2019-03-27T13:56:25.142Z,10.90
2019-03-27T13:58:53.136Z,10.60
2019-03-27T14:01:21.171Z,10.40
2019-03-27T14:03:50.141Z,10.20
2019-03-27T14:06:18.188Z,10.20
2019-03-27T14:08:46.193Z,10.00
2019-03-27T14:11:14.248Z,9.90
2019-03-27T14:13:43.585Z,9.80
2019-03-27T14:16:11.766Z,9.90
2019-03-27T14:18:39.772Z,10.00
2019-03-27T14:21:07.810Z,10.20
2019-03-27T14:23:35.811Z,10.30
2019-03-27T14:26:03.907Z,10.50
2019-03-27T14:28:31.990Z,10.60
2019-03-27T14:31:00.023Z,10.70
2019-03-27T14:33:28.119Z,10.80
2019-03-27T14:35:56.342Z,10.80
2019-03-27T14:38:24.358Z,10.80
2019-03-27T14:40:52.386Z,10.70
2019-03-27T14:43:20.628Z,10.70
2019-03-27T14:45:48.884Z,10.60
2019-03-27T14:48:16.926Z,10.60
2019-03-27T14:50:45.050Z,10.60
2019-03-27T14:53:13.295Z,10.60
2019-03-27T14:55:41.352Z,10.50
2019-03-27T14:58:09.351Z,10.40
2019-03-27T15:00:37.327Z,10.40
2019-03-27T15:03:05.365Z,10.40
2019-03-27T15:05:33.433Z,10.50
2019-03-27T15:08:04.081Z,10.50
2019-03-27T15:10:31.250Z,10.60
2019-03-27T15:12:59.271Z,10.70
2019-03-27T15:15:27.311Z,10.70
2019-03-27T15:17:55.318Z,10.70
2019-03-27T15:20:23.318Z,10.70
2019-03-27T15:22:51.381Z,10.70
2019-03-27T15:25:19.421Z,10.60
2019-03-27T15:27:47.427Z,10.50
2019-03-27T15:30:15.510Z,10.30
2019-03-27T15:32:43.569Z,10.20
2019-03-27T15:35:11.581Z,10.00
2019-03-27T15:37:39.639Z,10.00
2019-03-27T15:40:08.558Z,9.90
2019-03-27T15:42:37.395Z,9.80
2019-03-27T15:45:06.256Z,9.80
2019-03-27T15:47:34.279Z,9.70
2019-03-27T15:50:02.278Z,9.70
2019-03-27T15:52:36.524Z,9.60
2019-03-27T15:55:00.742Z,9.50
2019-03-27T15:57:28.777Z,9.50
2019-03-27T15:59:56.783Z,9.40
2019-03-27T16:02:24.847Z,9.40
2019-03-27T16:04:52.876Z,9.30
2019-03-27T16:07:20.936Z,9.30
2019-03-27T16:09:48.943Z,9.20
2019-03-27T16:12:16.983Z,9.20
2019-03-27T16:14:45.039Z,9.20
2019-03-27T16:17:14.056Z,9.20
2019-03-27T16:19:42.323Z,9.10
2019-03-27T16:22:10.373Z,9.10
2019-03-27T16:24:38.457Z,9.10
2019-03-27T16:27:08.236Z,9.10
2019-03-27T16:29:36.256Z,9.10
2019-03-27T16:32:04.718Z,9.10
2019-03-27T16:34:32.787Z,9.10
2019-03-27T16:37:00.804Z,9.10
2019-03-27T16:39:28.848Z,9.00
2019-03-27T16:41:56.935Z,8.90
2019-03-27T16:44:24.953Z,8.90
2019-03-27T16:46:53.009Z,8.80
2019-03-27T16:49:21.000Z,8.80
2019-03-27T16:51:49.057Z,8.70
2019-03-27T16:54:17.102Z,8.70
2019-03-27T16:56:45.122Z,8.70
2019-03-27T16:59:13.174Z,8.70
2019-03-27T17:01:41.207Z,8.70
2019-03-27T17:04:09.452Z,8.70
2019-03-27T17:06:37.531Z,8.70
2019-03-27T17:09:07.264Z,8.70
2019-03-27T17:11:35.333Z,8.70
2019-03-27T17:14:03.347Z,8.70
2019-03-27T17:16:31.395Z,8.60
2019-03-27T17:18:59.428Z,8.60
2019-03-27T17:21:27.479Z,8.50
2019-03-27T17:23:55.554Z,8.50
2019-03-27T17:26:23.666Z,8.50
2019-03-27T17:28:51.601Z,8.50
2019-03-27T17:31:19.634Z,8.50
2019-03-27T17:33:47.631Z,8.40
2019-03-27T17:36:15.704Z,8.40
2019-03-27T17:38:43.705Z,8.30
2019-03-27T17:41:11.720Z,8.30
2019-03-27T17:43:39.816Z,8.30
2019-03-27T17:46:07.777Z,8.20
2019-03-27T17:48:35.792Z,8.20
2019-03-27T17:51:03.876Z,8.20
2019-03-27T17:53:32.305Z,8.10
2019-03-27T17:56:00.385Z,8.00
2019-03-27T17:58:28.398Z,8.00
2019-03-27T18:00:59.357Z,8.00
2019-03-27T18:03:27.389Z,7.90
2019-03-27T18:05:55.362Z,7.90
2019-03-27T18:08:23.372Z,7.80
2019-03-27T18:10:51.520Z,7.80
2019-03-27T18:13:22.065Z,7.50
2019-03-27T18:15:50.083Z,7.80
2019-03-27T18:18:18.108Z,7.80
2019-03-27T18:20:46.169Z,7.70
2019-03-27T18:23:14.194Z,7.70
2019-03-27T18:25:42.247Z,7.70
2019-03-27T18:28:10.305Z,7.70
2019-03-27T18:30:38.377Z,7.70
2019-03-27T18:33:06.432Z,7.70
2019-03-27T18:35:34.481Z,7.60
2019-03-27T18:38:02.532Z,7.60
2019-03-27T18:40:30.547Z,7.60
2019-03-27T18:42:58.657Z,7.50
2019-03-27T18:45:26.682Z,7.50
2019-03-27T18:47:54.742Z,7.50
2019-03-27T18:50:22.772Z,7.50
2019-03-27T18:52:50.848Z,7.50
2019-03-27T18:55:26.442Z,7.60
2019-03-27T18:57:59.482Z,7.50
2019-03-27T19:00:19.480Z,7.50
2019-03-27T19:02:47.518Z,7.50
2019-03-27T19:05:15.542Z,7.50
2019-03-27T19:07:43.695Z,7.40
2019-03-27T19:10:12.021Z,7.40
2019-03-27T19:12:40.045Z,7.40
2019-03-27T19:15:08.682Z,7.40
2019-03-27T19:17:36.709Z,7.40
2019-03-27T19:20:05.227Z,7.40
2019-03-27T19:22:33.239Z,7.40
2019-03-27T19:25:01.272Z,7.40
2019-03-27T19:27:29.319Z,7.50
2019-03-27T19:29:57.379Z,7.40
2019-03-27T19:32:25.419Z,7.40
2019-03-27T19:34:53.445Z,7.40
2019-03-27T19:37:21.519Z,7.30
2019-03-27T19:39:51.852Z,7.30
2019-03-27T19:42:19.931Z,7.30
2019-03-27T19:44:47.940Z,7.20
2019-03-27T19:47:15.989Z,7.20
2019-03-27T19:49:44.033Z,7.20
2019-03-27T19:52:12.072Z,7.20
2019-03-27T19:54:40.155Z,7.10
2019-03-27T19:57:08.204Z,7.20
2019-03-27T19:59:36.271Z,7.20
2019-03-27T20:02:04.310Z,7.20
2019-03-27T20:04:32.418Z,7.20
2019-03-27T20:07:00.446Z,7.20
2019-03-27T20:09:28.481Z,7.20
2019-03-27T20:11:56.581Z,7.10
2019-03-27T20:14:24.609Z,7.10
2019-03-27T20:16:52.677Z,7.00
2019-03-27T20:19:20.666Z,7.00
2019-03-27T20:21:48.737Z,7.00
2019-03-27T20:24:16.780Z,6.90
2019-03-27T20:26:44.807Z,6.80
2019-03-27T20:29:12.847Z,6.80
2019-03-27T20:31:40.896Z,6.80
2019-03-27T20:34:08.937Z,6.80
2019-03-27T20:36:36.983Z,6.70
2019-03-27T20:39:07.485Z,6.70
2019-03-27T20:41:35.567Z,6.60
2019-03-27T20:44:03.640Z,6.60
2019-03-27T20:46:31.680Z,6.50
2019-03-27T20:48:59.728Z,6.50
2019-03-27T20:51:27.742Z,6.50
2019-03-27T20:53:55.809Z,6.40
2019-03-27T20:56:23.838Z,6.40
2019-03-27T20:58:51.876Z,6.30
2019-03-27T21:01:19.973Z,6.30
2019-03-27T21:03:47.973Z,6.20
2019-03-27T21:06:16.030Z,6.20
2019-03-27T21:08:44.060Z,6.20
2019-03-27T21:11:12.110Z,6.20
2019-03-27T21:13:41.250Z,6.10
2019-03-27T21:16:09.487Z,6.10
2019-03-27T21:18:37.523Z,6.10
2019-03-27T21:21:05.532Z,6.00
2019-03-27T21:23:33.561Z,6.00
2019-03-27T21:26:01.594Z,6.10
2019-03-27T21:28:29.598Z,6.10
2019-03-27T21:30:57.677Z,6.10
2019-03-27T21:33:25.685Z,6.10
2019-03-27T21:35:53.706Z,6.00
2019-03-27T21:38:21.753Z,6.00
2019-03-27T21:40:49.784Z,5.90
2019-03-27T21:43:18.023Z,5.90
2019-03-27T21:45:46.017Z,5.80
2019-03-27T21:48:14.031Z,5.80
2019-03-27T21:50:42.124Z,5.70
2019-03-27T21:53:10.134Z,5.70
2019-03-27T21:55:42.970Z,5.70
2019-03-27T21:58:08.017Z,5.60
2019-03-27T22:00:39.845Z,5.60
2019-03-27T22:03:08.306Z,5.60
2019-03-27T22:05:36.303Z,5.50
2019-03-27T22:08:04.370Z,5.50
2019-03-27T22:10:32.357Z,5.50
2019-03-27T22:13:00.392Z,5.60
2019-03-27T22:15:28.443Z,5.60
2019-03-27T22:17:56.440Z,5.50
2019-03-27T22:20:24.470Z,5.50
2019-03-27T22:22:52.560Z,5.60
2019-03-27T22:25:20.553Z,5.50
2019-03-27T22:27:48.600Z,5.50
2019-03-27T22:30:16.640Z,5.50
2019-03-27T22:32:44.660Z,5.40
2019-03-27T22:35:13.003Z,5.40
2019-03-27T22:37:41.035Z,5.40
2019-03-27T22:40:09.048Z,5.40
2019-03-27T22:42:37.056Z,5.50
2019-03-27T22:45:05.472Z,5.50
2019-03-27T22:47:33.499Z,5.40
2019-03-27T22:50:01.521Z,5.40
2019-03-27T22:52:29.553Z,5.40
2019-03-27T22:54:57.558Z,5.40
2019-03-27T22:57:25.583Z,5.40
2019-03-27T22:59:53.643Z,5.40
2019-03-27T23:02:21.648Z,5.40
2019-03-27T23:04:49.674Z,5.30
2019-03-27T23:07:17.692Z,5.30
2019-03-27T23:09:45.690Z,5.30
2019-03-27T23:12:13.717Z,5.30
2019-03-27T23:14:41.729Z,5.30
2019-03-27T23:17:09.750Z,5.30
2019-03-27T23:19:37.763Z,5.30
2019-03-27T23:22:05.809Z,5.30
2019-03-27T23:24:33.794Z,5.30
2019-03-27T23:27:01.813Z,5.30
2019-03-27T23:29:29.814Z,5.30
2019-03-27T23:31:57.875Z,5.20
2019-03-27T23:34:25.868Z,5.20
2019-03-27T23:36:53.880Z,5.20
2019-03-27T23:39:22.104Z,5.20
2019-03-27T23:41:50.106Z,5.10
2019-03-27T23:44:20.638Z,5.10
2019-03-27T23:46:48.661Z,5.00
2019-03-27T23:49:16.667Z,5.00
2019-03-27T23:51:44.762Z,5.00
2019-03-27T23:54:12.775Z,4.90
2019-03-27T23:56:40.787Z,4.90
2019-03-27T23:59:09.033Z,4.90
